Leonard, Oklahoma
Current Conditions -  °F | °C
As of 6:53 PM on Tuesday 25 Nov 2014 (Local Time) from KRVS Reporting Station
Clear Clear  
Wind Chill: 37°   Ceiling: Unl
Heat Index: 40°   Visibility: 10mi
Dew Point: 26°   Wind: 5mph
Humidity: 58%   Direction: 150°SSE
Pressure: 30.11"   Gusts: NA
Location:  35.92°N, 95.8°W
Report Text: KRVS 260053Z 15004KT 10SM CLR 04/M03 A3011 RMK AO2 SLP205 T00441033
Loading
Personal Weather Stations






























Interactive Weather Map New forecast layout! Learn more

10-Day Weather Forecast

Advertisements
Track Severe Weather on mobile